Meiou Maru — JD4206 — position and weather

sailwx.info

Track history (hours):
 
Tides and Currents Weather Stations Pressure Air Temp Water Temp Dewpoint Dewpoint Depression Visibility Wind Speed Wind Dir Waves Ship Positions

Meiou Maru

Last reported at 2018-Jun-16 10:49 UTC. Time now 2018-Jun-18 17:36 UTC.
Position N 34°14' E 134°39'.

Length 65 m; draft 4.5 m.

Type: Tanker. MMSI: 431009805.

Date/timePositionNaut miles runAvg speedWind from/ knotsBaromVisibWave heightAir tempDewpointWater temp
2018-Jun-16 10:49N 34°14' E 134°39'1011.8
2018-Jun-16 09:58N 34°06' E 134°47'611.6
2018-Jun-16 09:29N 34°02' E 134°52'611.4
2018-Jun-16 09:00N 33°58' E 134°56'611.4
2018-Jun-16 08:30N 33°53' E 135°01'  
2018-Jun-10 07:02N 35°12' E 139°46'311.9
2018-Jun-10 06:46N 35°15' E 139°46'312.0
2018-Jun-10 06:30N 35°18' E 139°44'611.2
2018-Jun-10 06:00N 35°23' E 139°42'611.7
2018-Jun-10 05:30N 35°27' E 139°48'611.4
2018-Jun-10 05:00N 35°30' E 139°54'9 0.4
2018-Jun-09 07:11N 35°38' E 139°59'4 8.1
2018-Jun-09 06:41N 35°35' E 139°56'211.6
2018-Jun-09 06:30N 35°37' E 139°57'3 0.7
2018-Jun-09 02:34N 35°40' E 139°57'211.4
2018-Jun-09 02:24N 35°38' E 139°59'511.8
2018-Jun-09 02:01N 35°35' E 139°55'611.6
2018-Jun-09 01:30N 35°31' E 139°50'3 5.6
2018-Jun-09 01:00N 35°31' E 139°46'0 0.0
2018-Jun-09 00:29N 35°31' E 139°46'0 0.0
2018-Jun-09 00:00N 35°31' E 139°46'0 0.0
2018-Jun-08 23:30N 35°31' E 139°46'0 0.0
2018-Jun-08 23:00N 35°31' E 139°46'0 0.0
2018-Jun-08 22:30N 35°31' E 139°46'0 0.0
2018-Jun-08 22:00N 35°31' E 139°46'0 0.0
2018-Jun-08 21:30N 35°31' E 139°46'0 0.0
2018-Jun-08 21:00N 35°31' E 139°46'2 4.3
2018-Jun-08 20:31N 35°30' E 139°48'1 2.4
2018-Jun-08 20:00N 35°29' E 139°50'0 0.0
2018-Jun-08 19:30N 35°29' E 139°50'0 0.0
2018-Jun-08 19:00N 35°29' E 139°50'0 0.0
2018-Jun-08 18:31N 35°29' E 139°50'0 0.0
2018-Jun-08 18:00N 35°29' E 139°50'0 0.0
2018-Jun-08 17:30N 35°29' E 139°50'0 0.0
2018-Jun-08 17:00N 35°29' E 139°50'0 0.0
2018-Jun-08 16:30N 35°29' E 139°50'0 0.0
2018-Jun-08 16:00N 35°29' E 139°50'0 0.0
2018-Jun-08 15:31N 35°29' E 139°50'0 0.0
2018-Jun-08 15:00N 35°29' E 139°50'0 0.0
2018-Jun-08 14:31N 35°29' E 139°50'0 0.0
2018-Jun-08 14:00N 35°29' E 139°50'4 7.1
2018-Jun-08 13:30N 35°26' E 139°47'612.3
2018-Jun-08 13:01N 35°20' E 139°45'611.5
2018-Jun-08 12:30N 35°15' E 139°47'24810.4
2018-Jun-07 12:43N 33°52' E 135°03'810.2
2018-Jun-07 11:59N 33°59' E 135°02'1011.3
2018-Jun-07 11:05N 34°09' E 135°02'111.3
2018-Jun-07 11:00N 34°10' E 135°02'611.7
2018-Jun-07 10:30N 34°16' E 135°03'611.9
2018-Jun-07 10:00N 34°21' E 135°06'611.2
2018-Jun-07 09:30N 34°26' E 135°10'611.2
2018-Jun-07 09:00N 34°29' E 135°16'611.3
2018-Jun-07 08:30N 34°32' E 135°21'3 2.4
2018-Jun-07 07:03N 34°33' E 135°26'0 0.0
2018-Jun-07 06:50N 34°33' E 135°26'0 0.0
2018-Jun-07 06:28N 34°33' E 135°26'0 0.0
2018-Jun-07 05:57N 34°33' E 135°26'0 0.0
2018-Jun-07 05:30N 34°33' E 135°26'0 0.0
2018-Jun-07 05:00N 34°33' E 135°26'0 0.0
2018-Jun-07 04:30N 34°33' E 135°26'0 0.0
2018-Jun-07 04:00N 34°33' E 135°26'0 0.0
2018-Jun-07 03:30N 34°33' E 135°26'0 0.0
2018-Jun-07 03:00N 34°33' E 135°26'0 0.0
2018-Jun-07 02:29N 34°33' E 135°26'0 0.0
2018-Jun-07 01:58N 34°33' E 135°26'0 0.0
2018-Jun-07 01:26N 34°33' E 135°26'0 0.0
2018-Jun-07 00:59N 34°33' E 135°26'0 0.0
2018-Jun-07 00:29N 34°33' E 135°26'0 0.0
2018-Jun-06 23:58N 34°33' E 135°26'2 5.1
2018-Jun-06 23:30N 34°34' E 135°23'0 0.0
2018-Jun-06 22:59N 34°34' E 135°23'0 0.0
2018-Jun-06 22:25N 34°34' E 135°23'0 0.0
2018-Jun-06 22:00N 34°34' E 135°23'0 0.0
2018-Jun-06 21:29N 34°34' E 135°23'0 0.0
2018-Jun-06 20:59N 34°34' E 135°23'0 0.1
2018-Jun-06 20:30N 34°34' E 135°23'0 0.0
2018-Jun-06 20:00N 34°34' E 135°23'0 0.0
2018-Jun-06 19:30N 34°34' E 135°23'0 0.0
2018-Jun-06 19:00N 34°34' E 135°23'0 0.1
2018-Jun-06 18:30N 34°34' E 135°23'0 0.0
2018-Jun-06 17:56N 34°34' E 135°23'0 0.0
2018-Jun-06 17:30N 34°34' E 135°23'0 0.0
2018-Jun-06 17:00N 34°34' E 135°23'0 0.0
2018-Jun-06 16:30N 34°34' E 135°23'0 0.0
2018-Jun-06 16:00N 34°34' E 135°23'0 0.0
2018-Jun-06 15:29N 34°34' E 135°23'0 0.0
2018-Jun-06 14:52N 34°34' E 135°23'0 0.0
2018-Jun-06 14:30N 34°34' E 135°23'0 0.1
2018-Jun-06 14:00N 34°34' E 135°23'0 0.0
2018-Jun-06 13:30N 34°34' E 135°23'0 0.0
2018-Jun-06 13:00N 34°34' E 135°23'0 0.0
2018-Jun-06 12:30N 34°34' E 135°23'0 0.1
2018-Jun-06 11:58N 34°34' E 135°23'0 0.0
2018-Jun-06 11:30N 34°34' E 135°23'0 0.0
2018-Jun-06 10:57N 34°34' E 135°23'  
Track history (hours):
 
Tides and Currents Weather Stations Pressure Air Temp Water Temp Dewpoint Dewpoint Depression Visibility Wind Speed Wind Dir Waves Ship Positions

Meiou Maru

Last reported at 2018-Jun-16 10:49 UTC. Time now 2018-Jun-18 17:36 UTC.
Position N 34°14' E 134°39'.

Length 65 m; draft 4.5 m.

Type: Tanker. MMSI: 431009805.

Date/timePositionNaut miles runAvg speedWind from/ knotsBaromVisibWave heightAir tempDewpointWater temp
2018-Jun-16 10:49N 34°14' E 134°39'1011.8
2018-Jun-16 09:58N 34°06' E 134°47'611.6
2018-Jun-16 09:29N 34°02' E 134°52'611.4
2018-Jun-16 09:00N 33°58' E 134°56'611.4
2018-Jun-16 08:30N 33°53' E 135°01'  
2018-Jun-10 07:02N 35°12' E 139°46'311.9
2018-Jun-10 06:46N 35°15' E 139°46'312.0
2018-Jun-10 06:30N 35°18' E 139°44'611.2
2018-Jun-10 06:00N 35°23' E 139°42'611.7
2018-Jun-10 05:30N 35°27' E 139°48'611.4
2018-Jun-10 05:00N 35°30' E 139°54'9 0.4
2018-Jun-09 07:11N 35°38' E 139°59'4 8.1
2018-Jun-09 06:41N 35°35' E 139°56'211.6
2018-Jun-09 06:30N 35°37' E 139°57'3 0.7
2018-Jun-09 02:34N 35°40' E 139°57'211.4
2018-Jun-09 02:24N 35°38' E 139°59'511.8
2018-Jun-09 02:01N 35°35' E 139°55'611.6
2018-Jun-09 01:30N 35°31' E 139°50'3 5.6
2018-Jun-09 01:00N 35°31' E 139°46'0 0.0
2018-Jun-09 00:29N 35°31' E 139°46'0 0.0
2018-Jun-09 00:00N 35°31' E 139°46'0 0.0
2018-Jun-08 23:30N 35°31' E 139°46'0 0.0
2018-Jun-08 23:00N 35°31' E 139°46'0 0.0
2018-Jun-08 22:30N 35°31' E 139°46'0 0.0
2018-Jun-08 22:00N 35°31' E 139°46'0 0.0
2018-Jun-08 21:30N 35°31' E 139°46'0 0.0
2018-Jun-08 21:00N 35°31' E 139°46'2 4.3
2018-Jun-08 20:31N 35°30' E 139°48'1 2.4
2018-Jun-08 20:00N 35°29' E 139°50'0 0.0
2018-Jun-08 19:30N 35°29' E 139°50'0 0.0
2018-Jun-08 19:00N 35°29' E 139°50'0 0.0
2018-Jun-08 18:31N 35°29' E 139°50'0 0.0
2018-Jun-08 18:00N 35°29' E 139°50'0 0.0
2018-Jun-08 17:30N 35°29' E 139°50'0 0.0
2018-Jun-08 17:00N 35°29' E 139°50'0 0.0
2018-Jun-08 16:30N 35°29' E 139°50'0 0.0
2018-Jun-08 16:00N 35°29' E 139°50'0 0.0
2018-Jun-08 15:31N 35°29' E 139°50'0 0.0
2018-Jun-08 15:00N 35°29' E 139°50'0 0.0
2018-Jun-08 14:31N 35°29' E 139°50'0 0.0
2018-Jun-08 14:00N 35°29' E 139°50'4 7.1
2018-Jun-08 13:30N 35°26' E 139°47'612.3
2018-Jun-08 13:01N 35°20' E 139°45'611.5
2018-Jun-08 12:30N 35°15' E 139°47'24810.4
2018-Jun-07 12:43N 33°52' E 135°03'810.2
2018-Jun-07 11:59N 33°59' E 135°02'1011.3
2018-Jun-07 11:05N 34°09' E 135°02'111.3
2018-Jun-07 11:00N 34°10' E 135°02'611.7
2018-Jun-07 10:30N 34°16' E 135°03'611.9
2018-Jun-07 10:00N 34°21' E 135°06'611.2
2018-Jun-07 09:30N 34°26' E 135°10'611.2
2018-Jun-07 09:00N 34°29' E 135°16'611.3
2018-Jun-07 08:30N 34°32' E 135°21'3 2.4
2018-Jun-07 07:03N 34°33' E 135°26'0 0.0
2018-Jun-07 06:50N 34°33' E 135°26'0 0.0
2018-Jun-07 06:28N 34°33' E 135°26'0 0.0
2018-Jun-07 05:57N 34°33' E 135°26'0 0.0
2018-Jun-07 05:30N 34°33' E 135°26'0 0.0
2018-Jun-07 05:00N 34°33' E 135°26'0 0.0
2018-Jun-07 04:30N 34°33' E 135°26'0 0.0
2018-Jun-07 04:00N 34°33' E 135°26'0 0.0
2018-Jun-07 03:30N 34°33' E 135°26'0 0.0
2018-Jun-07 03:00N 34°33' E 135°26'0 0.0
2018-Jun-07 02:29N 34°33' E 135°26'0 0.0
2018-Jun-07 01:58N 34°33' E 135°26'0 0.0
2018-Jun-07 01:26N 34°33' E 135°26'0 0.0
2018-Jun-07 00:59N 34°33' E 135°26'0 0.0
2018-Jun-07 00:29N 34°33' E 135°26'0 0.0
2018-Jun-06 23:58N 34°33' E 135°26'2 5.1
2018-Jun-06 23:30N 34°34' E 135°23'0 0.0
2018-Jun-06 22:59N 34°34' E 135°23'0 0.0
2018-Jun-06 22:25N 34°34' E 135°23'0 0.0
2018-Jun-06 22:00N 34°34' E 135°23'0 0.0
2018-Jun-06 21:29N 34°34' E 135°23'0 0.0
2018-Jun-06 20:59N 34°34' E 135°23'0 0.1
2018-Jun-06 20:30N 34°34' E 135°23'0 0.0
2018-Jun-06 20:00N 34°34' E 135°23'0 0.0
2018-Jun-06 19:30N 34°34' E 135°23'0 0.0
2018-Jun-06 19:00N 34°34' E 135°23'0 0.1
2018-Jun-06 18:30N 34°34' E 135°23'0 0.0
2018-Jun-06 17:56N 34°34' E 135°23'0 0.0
2018-Jun-06 17:30N 34°34' E 135°23'0 0.0
2018-Jun-06 17:00N 34°34' E 135°23'0 0.0
2018-Jun-06 16:30N 34°34' E 135°23'0 0.0
2018-Jun-06 16:00N 34°34' E 135°23'0 0.0
2018-Jun-06 15:29N 34°34' E 135°23'0 0.0
2018-Jun-06 14:52N 34°34' E 135°23'0 0.0
2018-Jun-06 14:30N 34°34' E 135°23'0 0.1
2018-Jun-06 14:00N 34°34' E 135°23'0 0.0
2018-Jun-06 13:30N 34°34' E 135°23'0 0.0
2018-Jun-06 13:00N 34°34' E 135°23'0 0.0
2018-Jun-06 12:30N 34°34' E 135°23'0 0.1
2018-Jun-06 11:58N 34°34' E 135°23'0 0.0
2018-Jun-06 11:30N 34°34' E 135°23'0 0.0
2018-Jun-06 10:57N 34°34' E 135°23'  

Dump ship's entire track history